Time;durP1;ratioP1;P1;durP2;ratioP2;P2;SDS_P1;SDS_P2;PMS_P1;PMS_P2;Temp;Humidity;BMP_temperature;BMP_pressure;BME280_temperature;BME280_humidity;BME280_pressure;Samples;Min_cycle;Max_cycle;Signal;HPM_P1;HPM_P2
2023/01/25 00:00:23;;;;;;;;;;;20.50;55.20;;;;;;1576238;74;1149;-68
2023/01/25 00:02:25;;;;;;;;;;;20.50;55.40;;;;;;1568097;74;781;-67
2023/01/25 00:04:27;;;;;;;;;;;20.60;55.20;;;;;;1559738;75;783;-67
2023/01/25 00:06:29;;;;;;;;;;;20.60;54.90;;;;;;1569006;74;722;-68
2023/01/25 00:08:30;;;;;;;;;;;20.70;54.80;;;;;;1577441;74;733;-69
2023/01/25 00:10:32;;;;;;;;;;;20.70;54.70;;;;;;1562910;74;1939;-68
2023/01/25 00:12:34;;;;;;;;;;;20.70;54.60;;;;;;1569170;75;716;-67
2023/01/25 00:14:36;;;;;;;;;;;20.70;54.50;;;;;;1561978;75;673;-67
2023/01/25 00:16:38;;;;;;;;;;;20.70;54.70;;;;;;1529195;76;680;-70
2023/01/25 00:18:40;;;;;;;;;;;20.70;54.70;;;;;;1538870;77;643;-68
2023/01/25 00:20:42;;;;;;;;;;;20.70;54.50;;;;;;1557097;74;230026;-60
2023/01/25 00:22:44;;;;;;;;;;;20.90;54.50;;;;;;1589564;73;672;-59
2023/01/25 00:24:46;;;;;;;;;;;20.90;54.40;;;;;;1614219;72;803;-63
2023/01/25 00:26:47;;;;;;;;;;;20.80;54.20;;;;;;1614215;72;655;-62
2023/01/25 00:28:50;;;;;;;;;;;20.90;54.10;;;;;;1628361;72;709;-60
2023/01/25 00:30:52;;;;;;;;;;;20.90;54.00;;;;;;1610531;72;1940;-62
2023/01/25 00:32:55;;;;;;;;;;;20.90;54.00;;;;;;1608310;73;771;-61
2023/01/25 00:34:57;;;;;;;;;;;20.90;53.90;;;;;;1600447;73;2116;-60
2023/01/25 00:37:04;;;;;;;;;;;21.00;53.80;;;;;;1596297;73;743;-61
2023/01/25 00:39:06;;;;;;;;;;;21.00;53.90;;;;;;1601958;73;1160;-61
2023/01/25 00:41:08;;;;;;;;;;;20.90;53.80;;;;;;1606215;73;723;-60
2023/01/25 00:43:10;;;;;;;;;;;20.90;54.10;;;;;;1600710;73;792;-60
2023/01/25 00:45:12;;;;;;;;;;;21.00;54.00;;;;;;1608046;73;699;-61
2023/01/25 00:47:14;;;;;;;;;;;21.00;54.00;;;;;;1589503;73;671;-60
2023/01/25 00:49:26;;;;;;;;;;;21.00;53.80;;;;;;1596776;73;1106;-60
2023/01/25 00:51:28;;;;;;;;;;;21.00;53.70;;;;;;1596803;73;1937;-60
2023/01/25 00:53:30;;;;;;;;;;;20.90;53.70;;;;;;1611164;73;748;-61
2023/01/25 00:55:32;;;;;;;;;;;21.00;53.70;;;;;;1590153;73;792;-61
2023/01/25 00:57:33;;;;;;;;;;;20.90;53.70;;;;;;1590952;73;723;-61
2023/01/25 00:59:35;;;;;;;;;;;20.90;53.70;;;;;;1597266;73;1142;-60
2023/01/25 01:01:37;;;;;;;;;;;20.90;53.60;;;;;;1609743;73;692;-60
2023/01/25 01:03:39;;;;;;;;;;;21.00;53.60;;;;;;1600050;73;796;-60
2023/01/25 01:05:41;;;;;;;;;;;21.00;54.10;;;;;;1589913;73;704;-61
2023/01/25 01:07:43;;;;;;;;;;;20.90;54.10;;;;;;1603601;73;727;-61
2023/01/25 01:09:45;;;;;;;;;;;20.90;54.20;;;;;;1594192;73;1137;-59
2023/01/25 01:11:47;;;;;;;;;;;21.00;54.10;;;;;;1602440;73;1929;-63
2023/01/25 01:13:48;;;;;;;;;;;21.00;53.90;;;;;;1603005;73;727;-60
2023/01/25 01:15:50;;;;;;;;;;;21.00;53.80;;;;;;1598145;73;792;-61
2023/01/25 01:17:52;;;;;;;;;;;21.00;53.80;;;;;;1598234;73;799;-59
2023/01/25 01:19:54;;;;;;;;;;;21.00;53.80;;;;;;1608766;73;1120;-60
2023/01/25 01:21:56;;;;;;;;;;;21.00;53.90;;;;;;1592573;73;787;-61
2023/01/25 01:23:58;;;;;;;;;;;21.00;54.00;;;;;;1608122;73;673;-61
2023/01/25 01:26:00;;;;;;;;;;;21.00;54.10;;;;;;1593999;73;691;-61
2023/01/25 01:28:02;;;;;;;;;;;20.90;54.20;;;;;;1608428;73;1646;-60
2023/01/25 01:30:04;;;;;;;;;;;20.90;54.50;;;;;;1599659;73;1139;-61
2023/01/25 01:32:06;;;;;;;;;;;20.80;54.30;;;;;;1593434;73;1913;-60
2023/01/25 01:34:09;;;;;;;;;;;20.70;54.50;;;;;;1595291;73;752;-59
2023/01/25 01:36:12;;;;;;;;;;;20.80;54.60;;;;;;1597486;73;679;-61
2023/01/25 01:38:14;;;;;;;;;;;20.70;54.90;;;;;;1598293;73;733;-61
2023/01/25 01:40:16;;;;;;;;;;;20.70;54.70;;;;;;1596583;73;1151;-61
2023/01/25 01:42:18;;;;;;;;;;;20.70;55.00;;;;;;1596470;73;735;-59
2023/01/25 01:44:21;;;;;;;;;;;20.60;54.80;;;;;;1602785;73;813;-60
2023/01/25 01:46:27;;;;;;;;;;;20.60;55.00;;;;;;1606263;73;820;-60
2023/01/25 01:48:43;;;;;;;;;;;20.60;55.10;;;;;;1600422;73;924;-60
2023/01/25 01:50:45;;;;;;;;;;;20.60;55.00;;;;;;1604983;73;1944;-60
2023/01/25 01:52:47;;;;;;;;;;;20.60;55.00;;;;;;1603345;73;734;-59
2023/01/25 01:54:49;;;;;;;;;;;20.60;55.10;;;;;;1608147;73;786;-58
2023/01/25 01:56:56;;;;;;;;;;;20.60;55.10;;;;;;1596853;73;814;-61
2023/01/25 01:58:57;;;;;;;;;;;20.50;55.00;;;;;;1601569;73;1155;-60
2023/01/25 02:00:59;;;;;;;;;;;20.50;55.10;;;;;;1601451;73;717;-61
2023/01/25 02:03:01;;;;;;;;;;;20.50;55.10;;;;;;1600594;73;720;-62
2023/01/25 02:05:04;;;;;;;;;;;20.50;55.20;;;;;;1603286;73;727;-61
2023/01/25 02:07:24;;;;;;;;;;;20.30;55.10;;;;;;1594634;73;763;-61
2023/01/25 02:09:26;;;;;;;;;;;20.50;55.20;;;;;;1597414;73;1132;-59
2023/01/25 02:11:28;;;;;;;;;;;20.50;55.20;;;;;;1599649;73;1935;-60
2023/01/25 02:13:30;;;;;;;;;;;20.60;55.20;;;;;;1598189;73;743;-61
2023/01/25 02:15:36;;;;;;;;;;;20.50;55.20;;;;;;1590593;74;708;-61
2023/01/25 02:17:38;;;;;;;;;;;20.50;55.20;;;;;;1588284;73;1782;-58
2023/01/25 02:19:45;;;;;;;;;;;20.40;55.20;;;;;;1600663;73;1154;-58
2023/01/25 02:21:47;;;;;;;;;;;20.50;55.20;;;;;;1591554;73;2060;-60
2023/01/25 02:23:56;;;;;;;;;;;20.50;55.10;;;;;;1591937;73;1507;-59
2023/01/25 02:26:00;;;;;;;;;;;20.60;55.10;;;;;;1592619;73;1776;-59
2023/01/25 02:28:20;;;;;;;;;;;20.60;55.00;;;;;;1600326;73;718;-60
2023/01/25 02:30:22;;;;;;;;;;;20.50;55.00;;;;;;1589626;73;1075;-60
2023/01/25 02:32:24;;;;;;;;;;;20.60;55.20;;;;;;1601513;73;1926;-59
2023/01/25 02:34:25;;;;;;;;;;;20.60;55.20;;;;;;1595652;73;744;-58
2023/01/25 02:36:28;;;;;;;;;;;20.50;55.30;;;;;;1608375;73;746;-59
2023/01/25 02:38:30;;;;;;;;;;;20.50;55.40;;;;;;1595275;73;1194;-59
2023/01/25 02:40:32;;;;;;;;;;;20.50;55.40;;;;;;1606762;73;1154;-61
2023/01/25 02:42:34;;;;;;;;;;;20.50;55.30;;;;;;1595544;73;788;-58
2023/01/25 02:44:36;;;;;;;;;;;20.60;55.50;;;;;;1600224;73;617;-60
2023/01/25 02:46:38;;;;;;;;;;;20.50;55.30;;;;;;1596469;73;764;-60
2023/01/25 02:48:40;;;;;;;;;;;20.60;55.60;;;;;;1601239;73;694;-58
2023/01/25 02:50:42;;;;;;;;;;;20.60;55.60;;;;;;1589480;73;1945;-60
2023/01/25 02:52:44;;;;;;;;;;;20.60;55.50;;;;;;1599875;73;1762;-60
2023/01/25 02:54:46;;;;;;;;;;;20.60;55.40;;;;;;1593512;73;671;-60
2023/01/25 02:56:48;;;;;;;;;;;20.70;55.50;;;;;;1604649;73;683;-60
2023/01/25 02:58:49;;;;;;;;;;;20.80;55.10;;;;;;1596710;73;720;-60
2023/01/25 03:00:51;;;;;;;;;;;20.80;55.00;;;;;;1589924;73;1091;-60
2023/01/25 03:02:53;;;;;;;;;;;20.80;54.90;;;;;;1599634;73;771;-59
2023/01/25 03:04:55;;;;;;;;;;;20.90;54.70;;;;;;1592835;73;1531;-58
2023/01/25 03:06:57;;;;;;;;;;;20.80;54.70;;;;;;1588910;73;725;-60
2023/01/25 03:08:59;;;;;;;;;;;20.80;54.70;;;;;;1589692;73;1112;-60
2023/01/25 03:11:01;;;;;;;;;;;20.80;54.90;;;;;;1582408;73;1932;-60
2023/01/25 03:13:03;;;;;;;;;;;20.80;54.80;;;;;;1600213;73;743;-60
2023/01/25 03:15:05;;;;;;;;;;;20.80;54.70;;;;;;1610120;73;711;-61
2023/01/25 03:17:07;;;;;;;;;;;20.70;54.90;;;;;;1588398;73;727;-61
2023/01/25 03:19:10;;;;;;;;;;;20.70;55.00;;;;;;1586922;73;1511;-60
2023/01/25 03:21:13;;;;;;;;;;;20.70;55.20;;;;;;1600155;73;776;-60
2023/01/25 03:23:15;;;;;;;;;;;20.70;55.20;;;;;;1606124;73;1763;-58
2023/01/25 03:25:17;;;;;;;;;;;20.60;55.20;;;;;;1605633;73;649;-60
2023/01/25 03:27:19;;;;;;;;;;;20.60;55.30;;;;;;1594325;73;717;-59
2023/01/25 03:29:21;;;;;;;;;;;20.60;55.40;;;;;;1608101;73;1154;-60
2023/01/25 03:31:23;;;;;;;;;;;20.70;55.50;;;;;;1603817;73;1934;-60
2023/01/25 03:33:25;;;;;;;;;;;20.60;55.30;;;;;;1595249;73;1545;-60
2023/01/25 03:35:27;;;;;;;;;;;20.70;55.50;;;;;;1602112;73;700;-60
2023/01/25 03:37:30;;;;;;;;;;;20.70;55.90;;;;;;1596277;73;701;-61
2023/01/25 03:39:32;;;;;;;;;;;20.60;55.60;;;;;;1600061;73;1171;-58
2023/01/25 03:41:34;;;;;;;;;;;20.70;55.70;;;;;;1597190;73;711;-58
2023/01/25 03:43:35;;;;;;;;;;;20.70;55.60;;;;;;1608654;73;766;-60
2023/01/25 03:45:37;;;;;;;;;;;20.60;55.50;;;;;;1590303;73;758;-61
2023/01/25 03:47:40;;;;;;;;;;;20.70;55.50;;;;;;1606133;73;1509;-60
2023/01/25 03:49:41;;;;;;;;;;;20.70;55.50;;;;;;1586970;73;1132;-62
2023/01/25 03:51:43;;;;;;;;;;;20.70;55.50;;;;;;1598380;73;1929;-60
2023/01/25 03:53:45;;;;;;;;;;;20.70;55.50;;;;;;1589669;73;684;-60
2023/01/25 03:55:47;;;;;;;;;;;20.70;55.50;;;;;;1599045;73;720;-59
2023/01/25 03:57:49;;;;;;;;;;;20.60;55.30;;;;;;1598262;73;674;-61
2023/01/25 03:59:51;;;;;;;;;;;20.70;55.40;;;;;;1606422;73;1157;-61
2023/01/25 04:01:53;;;;;;;;;;;20.70;55.50;;;;;;1607474;73;1520;-58
2023/01/25 04:03:54;;;;;;;;;;;20.70;55.40;;;;;;1604379;73;720;-62
2023/01/25 04:05:56;;;;;;;;;;;20.70;55.50;;;;;;1598851;73;707;-61
2023/01/25 04:07:58;;;;;;;;;;;20.70;55.40;;;;;;1587180;73;683;-56
2023/01/25 04:10:00;;;;;;;;;;;20.70;55.90;;;;;;1594770;73;1151;-56
2023/01/25 04:12:02;;;;;;;;;;;20.70;55.80;;;;;;1602512;73;1937;-56
2023/01/25 04:14:04;;;;;;;;;;;20.70;55.80;;;;;;1610124;73;852;-59
2023/01/25 04:16:10;;;;;;;;;;;20.70;55.80;;;;;;1598656;73;1545;-60
2023/01/25 04:18:13;;;;;;;;;;;20.70;55.90;;;;;;1608259;73;777;-59
2023/01/25 04:20:15;;;;;;;;;;;20.70;55.70;;;;;;1603427;73;1126;-57
2023/01/25 04:22:17;;;;;;;;;;;20.70;55.70;;;;;;1587475;73;814;-58
2023/01/25 04:24:18;;;;;;;;;;;20.70;55.60;;;;;;1594391;73;699;-59
2023/01/25 04:26:20;;;;;;;;;;;20.70;55.50;;;;;;1613529;73;730;-59
2023/01/25 04:28:22;;;;;;;;;;;20.80;55.40;;;;;;1598306;73;788;-58
2023/01/25 04:30:24;;;;;;;;;;;20.80;55.40;;;;;;1598453;73;1643;-59
2023/01/25 04:32:26;;;;;;;;;;;20.80;55.50;;;;;;1598851;73;1940;-58
2023/01/25 04:34:28;;;;;;;;;;;20.80;55.40;;;;;;1607597;73;725;-59
2023/01/25 04:36:30;;;;;;;;;;;20.80;55.50;;;;;;1595941;73;707;-60
2023/01/25 04:38:32;;;;;;;;;;;20.80;55.40;;;;;;1604155;73;717;-59
2023/01/25 04:40:33;;;;;;;;;;;20.80;55.30;;;;;;1597547;73;1170;-61
2023/01/25 04:42:35;;;;;;;;;;;20.80;55.50;;;;;;1601747;73;746;-59
2023/01/25 04:44:37;;;;;;;;;;;20.80;55.30;;;;;;1604951;73;1559;-58
2023/01/25 04:46:39;;;;;;;;;;;20.80;55.30;;;;;;1593012;73;766;-58
2023/01/25 04:48:41;;;;;;;;;;;20.80;55.30;;;;;;1605255;73;723;-59
2023/01/25 04:50:43;;;;;;;;;;;20.80;55.20;;;;;;1605039;73;1114;-59
2023/01/25 04:52:45;;;;;;;;;;;20.80;55.20;;;;;;1593157;73;1973;-60
2023/01/25 04:54:47;;;;;;;;;;;20.80;55.20;;;;;;1599522;73;617;-60
2023/01/25 04:56:48;;;;;;;;;;;20.80;55.20;;;;;;1593083;73;779;-58
2023/01/25 04:58:50;;;;;;;;;;;20.80;55.20;;;;;;1599732;73;1542;-59
2023/01/25 05:00:52;;;;;;;;;;;20.90;55.40;;;;;;1597702;73;1156;-60
2023/01/25 05:02:54;;;;;;;;;;;20.90;55.70;;;;;;1601626;73;751;-60
2023/01/25 05:04:56;;;;;;;;;;;20.90;55.70;;;;;;1597931;73;722;-59
2023/01/25 05:06:58;;;;;;;;;;;20.90;55.70;;;;;;1608325;73;792;-59
2023/01/25 05:09:00;;;;;;;;;;;20.90;55.70;;;;;;1607549;73;1131;-60
2023/01/25 05:11:02;;;;;;;;;;;20.90;55.60;;;;;;1599463;73;752;-58
2023/01/25 05:13:04;;;;;;;;;;;20.90;55.90;;;;;;1608719;73;1936;-59
2023/01/25 05:15:07;;;;;;;;;;;21.00;55.70;;;;;;1605408;73;704;-58
2023/01/25 05:17:08;;;;;;;;;;;20.90;55.80;;;;;;1594625;73;738;-60
2023/01/25 05:19:10;;;;;;;;;;;20.90;55.70;;;;;;1605565;73;1135;-58
2023/01/25 05:21:58;;;;;;;;;;;20.90;55.60;;;;;;1603232;73;708;-61
2023/01/25 05:23:16;;;;;;;;;;;20.90;55.50;;;;;;1577766;73;1143;-58
2023/01/25 05:27:37;;;;;;;;;;;21.00;55.50;;;;;;1596206;73;731;-59
2023/01/25 05:29:40;;;;;;;;;;;21.00;55.50;;;;;;1603431;73;1171;-60
2023/01/25 05:31:41;;;;;;;;;;;21.00;55.50;;;;;;1603337;73;1934;-59
2023/01/25 05:33:43;;;;;;;;;;;21.00;55.70;;;;;;1589449;73;843;-58
2023/01/25 05:35:45;;;;;;;;;;;20.90;55.40;;;;;;1607137;73;733;-60
2023/01/25 05:37:47;;;;;;;;;;;21.00;55.70;;;;;;1598444;73;715;-59
2023/01/25 05:39:49;;;;;;;;;;;20.90;55.90;;;;;;1589292;73;1566;-59
2023/01/25 05:41:51;;;;;;;;;;;21.00;55.90;;;;;;1591967;73;753;-60
2023/01/25 05:43:53;;;;;;;;;;;20.90;55.70;;;;;;1593754;73;818;-58
2023/01/25 05:45:55;;;;;;;;;;;21.10;56.10;;;;;;1603736;73;733;-59
2023/01/25 05:47:57;;;;;;;;;;;21.00;56.00;;;;;;1591767;73;631;-59
2023/01/25 05:49:59;;;;;;;;;;;21.00;55.90;;;;;;1594665;73;1064;-60
2023/01/25 05:52:00;;;;;;;;;;;21.10;56.00;;;;;;1589506;73;1944;-58
2023/01/25 05:54:02;;;;;;;;;;;21.00;56.00;;;;;;1599053;73;1512;-58
2023/01/25 05:56:07;;;;;;;;;;;21.10;56.00;;;;;;1605442;73;728;-60
2023/01/25 05:58:09;;;;;;;;;;;21.00;55.90;;;;;;1606285;73;869;-60
2023/01/25 06:00:11;;;;;;;;;;;21.10;56.20;;;;;;1606961;73;1130;-59
2023/01/25 06:02:13;;;;;;;;;;;21.10;55.80;;;;;;1602233;73;696;-58
2023/01/25 06:04:15;;;;;;;;;;;21.10;55.50;;;;;;1606897;72;845;-60
2023/01/25 06:06:17;;;;;;;;;;;21.20;55.20;;;;;;1595957;73;737;-58
2023/01/25 06:08:19;;;;;;;;;;;21.10;54.90;;;;;;1594956;73;1488;-61
2023/01/25 06:10:21;;;;;;;;;;;21.10;54.80;;;;;;1596110;73;1120;-59
2023/01/25 06:12:23;;;;;;;;;;;21.10;54.60;;;;;;1595523;72;1941;-60
2023/01/25 06:14:25;;;;;;;;;;;21.00;54.40;;;;;;1599885;73;802;-62
2023/01/25 06:16:27;;;;;;;;;;;21.00;54.30;;;;;;1605911;72;873;-59
2023/01/25 06:18:29;;;;;;;;;;;21.00;54.20;;;;;;1595644;72;877;-60
2023/01/25 06:20:30;;;;;;;;;;;21.00;54.10;;;;;;1576670;72;227542;-54
2023/01/25 06:22:32;;;;;;;;;;;21.00;54.20;;;;;;1520828;76;1495;-56
2023/01/25 06:24:34;;;;;;;;;;;21.00;54.10;;;;;;1531612;76;736;-57
2023/01/25 06:26:36;;;;;;;;;;;21.00;54.10;;;;;;1535912;76;764;-57
2023/01/25 06:28:38;;;;;;;;;;;21.00;54.10;;;;;;1530828;77;786;-58
2023/01/25 06:30:40;;;;;;;;;;;21.00;54.10;;;;;;1542758;75;1202;-58
2023/01/25 06:32:42;;;;;;;;;;;21.00;54.00;;;;;;1534133;76;1937;-57
2023/01/25 06:34:45;;;;;;;;;;;21.00;54.40;;;;;;1539688;76;696;-56
2023/01/25 06:36:47;;;;;;;;;;;21.00;54.40;;;;;;1544576;76;1454;-56
2023/01/25 06:38:49;;;;;;;;;;;21.00;54.50;;;;;;1546696;76;756;-57
2023/01/25 06:40:51;;;;;;;;;;;21.00;54.50;;;;;;1537777;75;1101;-58
2023/01/25 06:42:53;;;;;;;;;;;20.90;54.40;;;;;;1537945;76;722;-56
2023/01/25 06:44:55;;;;;;;;;;;20.90;54.40;;;;;;1536836;76;797;-56
2023/01/25 06:46:57;;;;;;;;;;;20.90;54.30;;;;;;1541824;77;721;-57
2023/01/25 06:48:59;;;;;;;;;;;20.90;54.40;;;;;;1528348;76;1131;-57
2023/01/25 06:51:02;;;;;;;;;;;20.90;54.40;;;;;;1535940;76;1454;-55
2023/01/25 06:53:04;;;;;;;;;;;20.90;54.40;;;;;;1537208;76;1972;-58
2023/01/25 06:55:07;;;;;;;;;;;20.90;53.90;;;;;;1531336;76;652;-58
2023/01/25 06:57:10;;;;;;;;;;;20.90;53.50;;;;;;1541614;76;681;-57
2023/01/25 06:59:12;;;;;;;;;;;20.90;53.60;;;;;;1537243;76;1902;-58
2023/01/25 07:01:15;;;;;;;;;;;20.90;53.60;;;;;;1533493;76;741;-56
2023/01/25 07:03:16;;;;;;;;;;;20.90;53.60;;;;;;1536264;76;732;-56
2023/01/25 07:05:18;;;;;;;;;;;20.90;53.60;;;;;;1533460;77;1448;-57
2023/01/25 07:07:20;;;;;;;;;;;20.90;53.50;;;;;;1533312;76;634;-56
2023/01/25 07:09:23;;;;;;;;;;;20.90;53.40;;;;;;1530419;75;1150;-58
2023/01/25 07:11:25;;;;;;;;;;;20.90;53.40;;;;;;1533585;77;788;-57
2023/01/25 07:13:27;;;;;;;;;;;20.90;53.40;;;;;;1532840;76;1940;-56
2023/01/25 07:15:29;;;;;;;;;;;20.90;53.40;;;;;;1549031;76;579;-57
2023/01/25 07:17:31;;;;;;;;;;;20.80;53.30;;;;;;1539424;76;712;-58
2023/01/25 07:19:32;;;;;;;;;;;20.90;52.90;;;;;;1534181;76;1445;-57
2023/01/25 07:21:34;;;;;;;;;;;20.80;52.80;;;;;;1539302;76;799;-58
2023/01/25 07:23:40;;;;;;;;;;;20.80;52.80;;;;;;1531965;75;562;-59
2023/01/25 07:25:43;;;;;;;;;;;20.80;53.00;;;;;;1544972;76;1204;-57
2023/01/25 07:27:45;;;;;;;;;;;20.90;53.20;;;;;;1538712;76;748;-57
2023/01/25 07:29:47;;;;;;;;;;;21.00;51.80;;;;;;1540508;76;1127;-57
2023/01/25 07:31:49;;;;;;;;;;;21.20;50.70;;;;;;1533842;76;604;-58
2023/01/25 07:33:51;;;;;;;;;;;21.20;49.60;;;;;;1533757;76;1935;-57
2023/01/25 07:35:53;;;;;;;;;;;21.30;49.20;;;;;;1532254;76;626;-59
2023/01/25 07:37:55;;;;;;;;;;;21.30;48.10;;;;;;1538783;75;792;-58
2023/01/25 07:39:57;;;;;;;;;;;21.20;47.70;;;;;;1541701;76;1150;-58
2023/01/25 07:41:59;;;;;;;;;;;21.20;47.40;;;;;;1541830;76;804;-58
2023/01/25 07:44:01;;;;;;;;;;;21.20;47.10;;;;;;1541231;76;736;-57
2023/01/25 07:46:06;;;;;;;;;;;21.20;46.80;;;;;;1539563;77;772;-57
2023/01/25 07:48:09;;;;;;;;;;;21.10;46.50;;;;;;1538213;76;711;-58
2023/01/25 07:50:11;;;;;;;;;;;21.10;46.30;;;;;;1537917;75;1159;-59
2023/01/25 07:52:13;;;;;;;;;;;21.10;46.00;;;;;;1525375;75;740;-58
2023/01/25 07:54:15;;;;;;;;;;;21.10;45.80;;;;;;1533943;76;1939;-57
2023/01/25 07:56:18;;;;;;;;;;;21.00;45.50;;;;;;1536688;76;709;-58
2023/01/25 07:58:20;;;;;;;;;;;21.00;44.70;;;;;;1534560;76;732;-59
2023/01/25 08:00:22;;;;;;;;;;;21.00;44.60;;;;;;1536736;75;1485;-59
2023/01/25 08:02:24;;;;;;;;;;;21.00;44.70;;;;;;1527293;76;772;-58
2023/01/25 08:04:27;;;;;;;;;;;21.00;45.40;;;;;;1530061;75;714;-58
2023/01/25 08:06:34;;;;;;;;;;;20.90;46.20;;;;;;1544875;75;909;-58
2023/01/25 08:08:34;;;;;;;;;;;20.90;46.70;;;;;;1538451;76;1537;-58
2023/01/25 08:10:35;;;;;;;;;;;20.90;46.80;;;;;;1532223;76;1138;-58
2023/01/25 08:12:37;;;;;;;;;;;20.90;47.00;;;;;;1539559;76;702;-58
2023/01/25 08:14:39;;;;;;;;;;;20.90;47.10;;;;;;1535259;76;1460;-58
2023/01/25 08:16:41;;;;;;;;;;;20.90;47.30;;;;;;1543649;77;687;-58
2023/01/25 08:18:43;;;;;;;;;;;20.90;47.40;;;;;;1538582;76;691;-57
2023/01/25 08:20:45;;;;;;;;;;;21.00;47.50;;;;;;1538294;76;1103;-58
2023/01/25 08:22:47;;;;;;;;;;;21.00;47.60;;;;;;1540316;77;795;-59
2023/01/25 08:24:49;;;;;;;;;;;20.90;47.60;;;;;;1542525;76;744;-57
2023/01/25 08:26:51;;;;;;;;;;;20.90;47.80;;;;;;1534448;76;804;-58
2023/01/25 08:28:53;;;;;;;;;;;21.00;47.80;;;;;;1535232;76;1351;-59
2023/01/25 08:30:55;;;;;;;;;;;21.00;47.80;;;;;;1541725;76;1143;-57
2023/01/25 08:32:56;;;;;;;;;;;21.00;47.90;;;;;;1538611;77;1935;-58
2023/01/25 08:34:58;;;;;;;;;;;21.00;48.00;;;;;;1525444;76;736;-58
2023/01/25 08:37:00;;;;;;;;;;;21.00;48.10;;;;;;1542251;76;699;-58
2023/01/25 08:39:03;;;;;;;;;;;21.00;48.20;;;;;;1543674;76;1136;-59
2023/01/25 08:41:09;;;;;;;;;;;20.90;48.20;;;;;;1531127;76;710;-58
2023/01/25 08:43:10;;;;;;;;;;;21.00;48.30;;;;;;1532728;76;1478;-59
2023/01/25 08:45:12;;;;;;;;;;;21.00;48.40;;;;;;1529551;76;697;-58
2023/01/25 08:47:14;;;;;;;;;;;20.90;48.40;;;;;;1534978;77;694;-58
2023/01/25 08:49:16;;;;;;;;;;;20.90;48.40;;;;;;1531755;77;1171;-58
2023/01/25 08:51:18;;;;;;;;;;;20.90;48.50;;;;;;1547690;77;919;-59
2023/01/25 08:53:20;;;;;;;;;;;20.90;48.60;;;;;;1548474;77;1921;-59
2023/01/25 08:55:22;;;;;;;;;;;20.90;48.60;;;;;;1538757;76;735;-58
2023/01/25 08:57:24;;;;;;;;;;;20.90;48.60;;;;;;1532758;76;1316;-59
2023/01/25 08:59:25;;;;;;;;;;;20.90;48.60;;;;;;1542507;77;1231;-59
2023/01/25 09:01:27;;;;;;;;;;;20.90;48.60;;;;;;1541770;77;628;-59
2023/01/25 09:03:29;;;;;;;;;;;20.90;48.60;;;;;;1537613;75;620;-57
2023/01/25 09:05:33;;;;;;;;;;;20.90;48.70;;;;;;1535468;77;658;-59
2023/01/25 09:07:37;;;;;;;;;;;20.90;48.90;;;;;;1533798;76;843;-58
2023/01/25 09:09:39;;;;;;;;;;;20.90;49.00;;;;;;1537591;76;2137;-59
2023/01/25 09:11:41;;;;;;;;;;;20.90;49.20;;;;;;1542780;76;1499;-58
2023/01/25 09:13:43;;;;;;;;;;;20.90;49.20;;;;;;1544143;76;1899;-58
2023/01/25 09:15:45;;;;;;;;;;;20.90;49.30;;;;;;1548076;76;607;-58
2023/01/25 09:17:47;;;;;;;;;;;21.00;49.30;;;;;;1535408;76;737;-59
2023/01/25 09:19:48;;;;;;;;;;;20.90;49.40;;;;;;1530659;76;1148;-58
2023/01/25 09:21:50;;;;;;;;;;;20.90;49.40;;;;;;1548179;76;772;-58
2023/01/25 09:23:52;;;;;;;;;;;20.80;49.40;;;;;;1538233;76;867;-58
2023/01/25 09:25:57;;;;;;;;;;;20.80;49.30;;;;;;1533674;76;1510;-59
2023/01/25 09:27:59;;;;;;;;;;;20.90;49.40;;;;;;1531410;76;800;-59
2023/01/25 09:30:01;;;;;;;;;;;20.80;49.30;;;;;;1540520;76;1172;-58
2023/01/25 09:32:03;;;;;;;;;;;20.90;49.50;;;;;;1528306;76;696;-59
2023/01/25 09:34:05;;;;;;;;;;;20.90;49.50;;;;;;1533362;76;1935;-59
2023/01/25 09:36:07;;;;;;;;;;;20.90;49.70;;;;;;1536587;76;704;-58
2023/01/25 09:38:09;;;;;;;;;;;20.80;49.50;;;;;;1533411;76;878;-58
2023/01/25 09:40:16;;;;;;;;;;;20.90;49.70;;;;;;1530623;76;1480;-58
2023/01/25 09:42:36;;;;;;;;;;;20.90;49.60;;;;;;1531975;76;1818;-58
2023/01/25 09:44:56;;;;;;;;;;;20.90;49.70;;;;;;1535213;76;904;-58
2023/01/25 09:46:59;;;;;;;;;;;20.90;49.80;;;;;;1528480;77;649;-59
2023/01/25 09:49:15;;;;;;;;;;;20.80;49.80;;;;;;1534339;76;1241;-58
2023/01/25 09:51:27;;;;;;;;;;;20.90;50.00;;;;;;1546426;76;1696;-59
2023/01/25 09:53:39;;;;;;;;;;;20.80;50.00;;;;;;1540900;76;1927;-59
2023/01/25 09:55:40;;;;;;;;;;;20.80;50.00;;;;;;1546393;77;682;-58
2023/01/25 09:57:42;;;;;;;;;;;20.80;50.10;;;;;;1545552;76;708;-58
2023/01/25 09:59:45;;;;;;;;;;;20.80;50.10;;;;;;1527711;76;1120;-59
2023/01/25 10:01:48;;;;;;;;;;;20.90;50.30;;;;;;1540472;75;758;-58
2023/01/25 10:03:52;;;;;;;;;;;20.80;50.30;;;;;;1548354;76;619;-57
2023/01/25 10:05:55;;;;;;;;;;;20.90;50.40;;;;;;1541356;76;1647;-59
2023/01/25 10:07:59;;;;;;;;;;;20.90;50.50;;;;;;1539352;76;1479;-56
2023/01/25 10:10:05;;;;;;;;;;;20.90;50.50;;;;;;1546255;75;1148;-58
2023/01/25 10:12:17;;;;;;;;;;;20.90;50.70;;;;;;1540689;76;720;-59
2023/01/25 10:14:20;;;;;;;;;;;20.90;50.70;;;;;;1536014;77;1919;-58
2023/01/25 10:16:26;;;;;;;;;;;20.80;50.70;;;;;;1542664;77;639;-57
2023/01/25 10:18:30;;;;;;;;;;;20.80;50.70;;;;;;1541799;76;772;-59
2023/01/25 10:20:33;;;;;;;;;;;20.80;51.00;;;;;;1540790;76;1160;-56
2023/01/25 10:22:37;;;;;;;;;;;20.80;50.90;;;;;;1530346;76;730;-56
2023/01/25 10:24:49;;;;;;;;;;;20.80;51.00;;;;;;1541906;76;801;-58
2023/01/25 10:26:52;;;;;;;;;;;20.80;51.00;;;;;;1537088;76;2043;-57
2023/01/25 10:28:56;;;;;;;;;;;20.80;51.10;;;;;;1531195;76;1102;-56
2023/01/25 10:30:59;;;;;;;;;;;20.90;51.10;;;;;;1539903;76;649;-56
2023/01/25 10:33:02;;;;;;;;;;;20.80;51.00;;;;;;1545598;76;722;-57
2023/01/25 10:35:11;;;;;;;;;;;20.90;51.00;;;;;;1546877;76;1916;-57
2023/01/25 10:37:14;;;;;;;;;;;20.90;51.10;;;;;;1532045;76;1740;-58
2023/01/25 10:39:16;;;;;;;;;;;20.90;51.10;;;;;;1534152;76;1139;-59
2023/01/25 10:41:23;;;;;;;;;;;20.90;51.10;;;;;;1525341;76;718;-59
2023/01/25 10:43:24;;;;;;;;;;;20.90;51.00;;;;;;1545969;76;696;-58
2023/01/25 10:45:26;;;;;;;;;;;20.90;51.00;;;;;;1539008;77;717;-59
2023/01/25 10:47:33;;;;;;;;;;;20.90;50.90;;;;;;1539110;76;663;-58
2023/01/25 10:49:53;;;;;;;;;;;21.00;51.00;;;;;;1535220;76;1178;-60
2023/01/25 10:51:56;;;;;;;;;;;20.90;51.00;;;;;;1541540;76;820;-60
2023/01/25 10:54:04;;;;;;;;;;;20.90;51.00;;;;;;1540990;76;1926;-59
2023/01/25 10:56:10;;;;;;;;;;;20.90;51.00;;;;;;1541101;76;708;-58
2023/01/25 10:58:14;;;;;;;;;;;20.90;51.00;;;;;;1530644;76;735;-58
2023/01/25 11:00:20;;;;;;;;;;;20.90;51.00;;;;;;1532227;76;1648;-59
2023/01/25 11:02:36;;;;;;;;;;;20.90;51.00;;;;;;1541072;77;689;-57
2023/01/25 11:04:39;;;;;;;;;;;20.90;50.90;;;;;;1536864;76;732;-58
2023/01/25 11:06:42;;;;;;;;;;;20.90;50.90;;;;;;1549544;76;779;-60
2023/01/25 11:08:44;;;;;;;;;;;20.90;50.90;;;;;;1535632;76;930;-57
2023/01/25 11:10:46;;;;;;;;;;;20.90;50.90;;;;;;1538602;76;1229;-59
2023/01/25 11:12:48;;;;;;;;;;;20.90;50.90;;;;;;1535980;75;599;-58
2023/01/25 11:14:50;;;;;;;;;;;20.90;50.90;;;;;;1538505;76;1943;-56
2023/01/25 11:16:52;;;;;;;;;;;20.90;50.90;;;;;;1540797;76;760;-57
2023/01/25 11:18:54;;;;;;;;;;;21.00;50.80;;;;;;1528534;76;796;-59
2023/01/25 11:21:00;;;;;;;;;;;21.00;50.90;;;;;;1534188;75;1463;-56
2023/01/25 11:23:02;;;;;;;;;;;20.90;50.80;;;;;;1537106;77;2196;-57
2023/01/25 11:25:22;;;;;;;;;;;20.90;50.80;;;;;;1534733;77;770;-60
2023/01/25 11:27:25;;;;;;;;;;;20.90;50.80;;;;;;1535954;75;604;-58
2023/01/25 11:29:27;;;;;;;;;;;21.00;50.70;;;;;;1534181;76;1122;-58
2023/01/25 11:31:28;;;;;;;;;;;20.90;50.50;;;;;;1538514;76;706;-60
2023/01/25 11:33:31;;;;;;;;;;;21.00;50.40;;;;;;1548829;76;780;-57
2023/01/25 11:35:33;;;;;;;;;;;21.00;50.30;;;;;;1535120;76;1911;-58
2023/01/25 11:37:36;;;;;;;;;;;20.90;50.20;;;;;;1545916;76;771;-58
2023/01/25 11:39:46;;;;;;;;;;;21.00;50.20;;;;;;1538231;76;1824;-59
2023/01/25 11:41:50;;;;;;;;;;;21.00;50.00;;;;;;1532490;76;677;-59
2023/01/25 11:44:08;;;;;;;;;;;21.10;50.10;;;;;;1546134;76;1819;-58
2023/01/25 11:46:30;;;;;;;;;;;21.10;50.10;;;;;;1537248;76;1776;-57
2023/01/25 11:48:49;;;;;;;;;;;21.00;50.00;;;;;;1542989;77;600;-58
2023/01/25 11:50:52;;;;;;;;;;;21.00;50.00;;;;;;1538723;76;1143;-58
2023/01/25 11:52:56;;;;;;;;;;;21.00;50.10;;;;;;1539798;76;1853;-59
2023/01/25 11:55:05;;;;;;;;;;;21.00;50.30;;;;;;1539582;76;1919;-58
2023/01/25 11:57:09;;;;;;;;;;;21.00;50.30;;;;;;1540106;75;707;-57
2023/01/25 11:59:30;;;;;;;;;;;20.90;50.40;;;;;;1535378;76;1659;-59
2023/01/25 12:01:37;;;;;;;;;;;20.90;50.50;;;;;;1533029;76;1831;-60
2023/01/25 12:03:49;;;;;;;;;;;20.90;50.50;;;;;;1530987;76;1995;-59
2023/01/25 12:05:56;;;;;;;;;;;20.90;50.50;;;;;;1537659;77;696;-60
2023/01/25 12:08:14;;;;;;;;;;;20.90;50.50;;;;;;1532977;76;672;-59
2023/01/25 12:10:21;;;;;;;;;;;20.90;50.50;;;;;;1528326;77;1157;-59
2023/01/25 12:12:37;;;;;;;;;;;20.90;50.50;;;;;;1536782;76;750;-60
2023/01/25 12:14:49;;;;;;;;;;;20.90;50.50;;;;;;1540678;76;1923;-60
2023/01/25 12:17:09;;;;;;;;;;;20.80;50.50;;;;;;1532618;77;724;-60